Time;durP1;ratioP1;P1;durP2;ratioP2;P2;SDS_P1;SDS_P2;PMS_P1;PMS_P2;Temp;Humidity;BMP_temperature;BMP_pressure;BME280_temperature;BME280_humidity;BME280_pressure;Samples;Min_cycle;Max_cycle;Signal;HPM_P1;HPM_P2
2021/10/05 00:01:45;;;;;;;34.20;14.70;;;;;;;;;;5031492;28;20030;-72
2021/10/05 00:04:11;;;;;;;31.15;14.68;;;;;;;;;;5030075;28;20363;-73
2021/10/05 00:06:36;;;;;;;34.15;14.88;;;;;;;;;;5031822;28;20040;-73
2021/10/05 00:09:02;;;;;;;37.15;17.58;;;;;;;;;;5030111;28;20044;-74
2021/10/05 00:11:28;;;;;;;38.05;15.85;;;;;;;;;;5031836;28;20377;-74
2021/10/05 00:13:54;;;;;;;38.45;15.15;;;;;;;;;;5029986;28;20045;-73
2021/10/05 00:16:20;;;;;;;34.33;15.93;;;;;;;;;;5031179;28;20454;-73
2021/10/05 00:18:49;;;;;;;32.22;15.20;;;;;;;;;;5031641;28;20075;-73
2021/10/05 00:21:15;;;;;;;47.15;18.30;;;;;;;;;;5029730;28;20025;-71
2021/10/05 00:23:41;;;;;;;35.25;14.95;;;;;;;;;;5029724;28;20028;-74
2021/10/05 00:26:07;;;;;;;40.88;17.48;;;;;;;;;;5029793;28;20022;-73
2021/10/05 00:28:32;;;;;;;31.23;15.25;;;;;;;;;;5031189;28;20109;-72
2021/10/05 00:30:58;;;;;;;45.03;17.63;;;;;;;;;;5029697;28;20109;-74
2021/10/05 00:33:24;;;;;;;47.63;19.70;;;;;;;;;;5031020;28;20026;-75
2021/10/05 00:35:50;;;;;;;46.47;21.13;;;;;;;;;;5029787;28;20053;-73
2021/10/05 00:38:18;;;;;;;50.58;21.05;;;;;;;;;;5029753;28;20417;-73
2021/10/05 00:40:43;;;;;;;44.10;18.70;;;;;;;;;;5031053;28;20507;-72
2021/10/05 00:43:09;;;;;;;48.08;19.42;;;;;;;;;;5030733;28;20029;-72
2021/10/05 00:45:36;;;;;;;42.40;19.52;;;;;;;;;;5029001;28;20493;-74
2021/10/05 00:48:01;;;;;;;44.47;20.50;;;;;;;;;;5030599;28;20033;-71
2021/10/05 00:50:27;;;;;;;49.42;20.95;;;;;;;;;;5031035;28;20041;-73
2021/10/05 00:52:53;;;;;;;68.32;25.08;;;;;;;;;;5029688;28;20041;-72
2021/10/05 00:55:19;;;;;;;55.13;23.13;;;;;;;;;;5029160;28;20102;-72
2021/10/05 00:57:46;;;;;;;48.47;20.85;;;;;;;;;;5031113;28;20108;-72
2021/10/05 01:00:12;;;;;;;43.55;18.05;;;;;;;;;;5028902;28;20056;-73
2021/10/05 01:02:38;;;;;;;40.00;17.05;;;;;;;;;;5030362;28;20065;-72
2021/10/05 01:05:04;;;;;;;34.78;15.13;;;;;;;;;;5030346;28;20039;-73
2021/10/05 01:07:30;;;;;;;40.80;16.85;;;;;;;;;;5030332;28;20028;-74
2021/10/05 01:09:55;;;;;;;38.85;17.05;;;;;;;;;;5029244;28;20393;-73
2021/10/05 01:12:21;;;;;;;36.58;16.40;;;;;;;;;;5030212;28;20057;-73
2021/10/05 01:14:47;;;;;;;41.03;17.95;;;;;;;;;;5029288;28;20025;-73
2021/10/05 01:17:14;;;;;;;33.70;15.25;;;;;;;;;;5030269;28;20136;-73
2021/10/05 01:19:40;;;;;;;46.90;16.55;;;;;;;;;;5030132;28;20037;-73
2021/10/05 01:22:06;;;;;;;36.10;15.00;;;;;;;;;;5030131;28;20229;-72
2021/10/05 01:24:33;;;;;;;41.17;15.52;;;;;;;;;;5028677;28;20124;-73
2021/10/05 01:26:59;;;;;;;35.63;15.30;;;;;;;;;;5030208;28;20033;-74
2021/10/05 01:29:27;;;;;;;41.80;16.52;;;;;;;;;;5029931;28;20040;-73
2021/10/05 01:31:56;;;;;;;35.67;16.10;;;;;;;;;;5030203;28;20030;-73
2021/10/05 01:34:22;;;;;;;34.95;15.00;;;;;;;;;;5029931;28;20087;-72
2021/10/05 01:36:50;;;;;;;34.80;15.70;;;;;;;;;;5029823;28;20409;-74
2021/10/05 01:39:25;;;;;;;37.10;16.73;;;;;;;;;;5029985;28;20039;-73
2021/10/05 01:41:55;;;;;;;37.88;16.08;;;;;;;;;;5030185;28;20064;-73
2021/10/05 01:44:21;;;;;;;32.55;14.73;;;;;;;;;;5028565;28;20029;-73
2021/10/05 01:46:50;;;;;;;36.30;15.18;;;;;;;;;;5030031;28;20057;-74
2021/10/05 01:49:17;;;;;;;42.97;15.95;;;;;;;;;;5029638;28;20018;-73
2021/10/05 01:51:42;;;;;;;43.60;16.35;;;;;;;;;;5030442;28;20018;-74
2021/10/05 01:54:10;;;;;;;40.10;15.43;;;;;;;;;;5029748;28;20600;-73
2021/10/05 01:56:36;;;;;;;37.97;16.27;;;;;;;;;;5028473;28;20029;-72
2021/10/05 01:59:02;;;;;;;38.70;17.52;;;;;;;;;;5029874;28;20382;-73
2021/10/05 02:01:28;;;;;;;38.03;17.02;;;;;;;;;;5028122;28;20067;-73
2021/10/05 02:03:53;;;;;;;47.67;19.83;;;;;;;;;;5029952;28;20022;-73
2021/10/05 02:06:19;;;;;;;50.17;19.80;;;;;;;;;;5029598;28;20025;-74
2021/10/05 02:08:44;;;;;;;55.17;22.00;;;;;;;;;;5029864;28;20080;-71
2021/10/05 02:11:10;;;;;;;49.55;20.80;;;;;;;;;;5029584;28;20470;-72
2021/10/05 02:13:35;;;;;;;52.22;23.25;;;;;;;;;;5029950;28;20057;-74
2021/10/05 02:16:02;;;;;;;49.35;22.58;;;;;;;;;;5029932;28;20029;-74
2021/10/05 02:18:27;;;;;;;48.10;22.10;;;;;;;;;;5029919;28;20022;-73
2021/10/05 02:20:53;;;;;;;56.47;22.60;;;;;;;;;;5028417;28;20525;-73
2021/10/05 02:23:18;;;;;;;49.13;22.55;;;;;;;;;;5028495;28;20132;-73
2021/10/05 02:25:44;;;;;;;47.40;20.23;;;;;;;;;;5029669;28;20079;-74
2021/10/05 02:28:12;;;;;;;54.88;23.30;;;;;;;;;;5029388;28;20029;-74
2021/10/05 02:30:38;;;;;;;57.88;22.83;;;;;;;;;;5029165;28;20022;-73
2021/10/05 02:33:04;;;;;;;55.42;22.77;;;;;;;;;;5033522;28;20024;-73
2021/10/05 02:35:29;;;;;;;53.65;24.05;;;;;;;;;;5033114;28;20405;-74
2021/10/05 02:37:55;;;;;;;54.53;23.70;;;;;;;;;;5032029;28;20029;-72
2021/10/05 02:40:21;;;;;;;57.17;24.45;;;;;;;;;;5033235;28;20466;-74
2021/10/05 02:42:46;;;;;;;68.20;26.75;;;;;;;;;;5033303;28;20537;-72
2021/10/05 02:45:12;;;;;;;76.30;30.15;;;;;;;;;;5032534;28;20029;-74
2021/10/05 02:47:38;;;;;;;75.72;32.03;;;;;;;;;;5031269;28;20060;-72
2021/10/05 02:50:04;;;;;;;80.50;34.65;;;;;;;;;;5032482;28;20026;-74
2021/10/05 02:52:30;;;;;;;75.95;33.17;;;;;;;;;;5031057;28;20385;-74
2021/10/05 02:54:55;;;;;;;81.25;33.45;;;;;;;;;;5031111;28;20026;-73
2021/10/05 02:57:21;;;;;;;84.03;34.25;;;;;;;;;;5032200;28;20021;-73
2021/10/05 02:59:47;;;;;;;85.22;33.70;;;;;;;;;;5031135;28;20091;-74
2021/10/05 03:02:14;;;;;;;79.90;32.95;;;;;;;;;;5032222;28;20026;-74
2021/10/05 03:04:39;;;;;;;77.95;32.20;;;;;;;;;;5031203;28;20567;-74
2021/10/05 03:07:05;;;;;;;84.13;32.38;;;;;;;;;;5031081;28;20104;-74
2021/10/05 03:09:32;;;;;;;66.93;29.25;;;;;;;;;;5030554;28;20466;-74
2021/10/05 03:11:58;;;;;;;65.68;28.25;;;;;;;;;;5030472;28;20551;-74
2021/10/05 03:14:23;;;;;;;65.05;28.35;;;;;;;;;;5031839;28;20030;-74
2021/10/05 03:16:49;;;;;;;68.82;29.08;;;;;;;;;;5031603;28;20078;-74
2021/10/05 03:19:14;;;;;;;80.90;29.70;;;;;;;;;;5031784;28;20033;-74
2021/10/05 03:21:40;;;;;;;75.28;32.35;;;;;;;;;;5031775;28;20025;-74
2021/10/05 03:24:07;;;;;;;78.93;32.63;;;;;;;;;;5031998;28;20142;-75
2021/10/05 03:26:33;;;;;;;84.70;34.20;;;;;;;;;;5030159;28;20017;-73
2021/10/05 03:28:58;;;;;;;87.10;36.63;;;;;;;;;;5030113;28;20030;-74
2021/10/05 03:31:24;;;;;;;84.68;34.28;;;;;;;;;;5030111;28;20488;-73
2021/10/05 03:33:49;;;;;;;85.78;35.65;;;;;;;;;;5031615;28;20049;-74
2021/10/05 03:36:16;;;;;;;83.55;36.95;;;;;;;;;;5029788;28;20174;-75
2021/10/05 03:38:42;;;;;;;87.00;36.72;;;;;;;;;;5030164;28;20525;-74
2021/10/05 03:41:10;;;;;;;85.68;36.58;;;;;;;;;;5029979;28;20029;-74
2021/10/05 03:43:36;;;;;;;89.65;40.45;;;;;;;;;;5013223;28;20033;-74
2021/10/05 03:46:04;;;;;;;91.00;36.92;;;;;;;;;;5031398;28;20116;-74
2021/10/05 03:48:31;;;;;;;89.85;39.42;;;;;;;;;;5029727;28;20025;-74
2021/10/05 03:50:58;;;;;;;93.40;38.50;;;;;;;;;;5031199;28;20382;-74
2021/10/05 03:53:23;;;;;;;97.05;38.10;;;;;;;;;;5029613;28;20497;-74
2021/10/05 03:55:52;;;;;;;94.90;37.28;;;;;;;;;;5029662;28;20040;-74
2021/10/05 03:58:19;;;;;;;85.50;38.35;;;;;;;;;;5029523;28;20608;-73
2021/10/05 04:00:45;;;;;;;100.15;41.80;;;;;;;;;;5030968;28;20025;-74
2021/10/05 04:03:11;;;;;;;94.03;36.28;;;;;;;;;;5030938;28;20383;-74
2021/10/05 04:05:36;;;;;;;95.68;41.63;;;;;;;;;;5031055;28;20033;-73
2021/10/05 04:08:02;;;;;;;101.13;39.65;;;;;;;;;;5030840;28;20025;-73
2021/10/05 04:10:29;;;;;;;102.63;39.78;;;;;;;;;;5029458;28;20025;-73
2021/10/05 04:12:55;;;;;;;104.30;42.05;;;;;;;;;;5030776;28;20025;-75
2021/10/05 04:15:20;;;;;;;108.15;43.22;;;;;;;;;;5029131;28;20076;-76
2021/10/05 04:17:46;;;;;;;102.95;40.30;;;;;;;;;;5029296;28;20021;-75
2021/10/05 04:20:11;;;;;;;101.93;41.25;;;;;;;;;;5030575;28;20373;-74
2021/10/05 04:22:37;;;;;;;101.80;40.13;;;;;;;;;;5017809;28;20037;-76
2021/10/05 04:25:05;;;;;;;100.88;40.60;;;;;;;;;;5022023;28;20032;-76
2021/10/05 04:27:33;;;;;;;99.20;39.05;;;;;;;;;;5027795;28;20064;-74
2021/10/05 04:29:59;;;;;;;100.95;40.72;;;;;;;;;;5020222;28;20105;-76
2021/10/05 04:32:25;;;;;;;100.15;41.00;;;;;;;;;;5025148;28;20030;-76
2021/10/05 04:34:51;;;;;;;102.45;40.50;;;;;;;;;;5031924;28;20041;-75
2021/10/05 04:37:16;;;;;;;103.13;41.63;;;;;;;;;;5025306;28;20044;-75
2021/10/05 04:39:42;;;;;;;94.65;39.67;;;;;;;;;;5031992;28;20034;-76
2021/10/05 04:42:08;;;;;;;98.65;39.78;;;;;;;;;;5033183;28;20531;-77
2021/10/05 04:44:35;;;;;;;102.40;43.13;;;;;;;;;;5022214;28;20105;-76
2021/10/05 04:47:01;;;;;;;108.95;40.17;;;;;;;;;;5014791;28;20334;-76
2021/10/05 04:49:26;;;;;;;96.88;39.38;;;;;;;;;;5016968;28;20065;-76
2021/10/05 04:51:52;;;;;;;105.03;39.65;;;;;;;;;;5016430;28;20510;-75
2021/10/05 04:54:19;;;;;;;95.13;40.50;;;;;;;;;;5013907;28;20026;-77
2021/10/05 04:56:45;;;;;;;98.28;39.97;;;;;;;;;;5015816;28;20033;-77
2021/10/05 04:59:11;;;;;;;91.22;36.47;;;;;;;;;;5016917;28;20504;-74
2021/10/05 05:01:37;;;;;;;87.15;37.50;;;;;;;;;;5020366;28;20032;-72
2021/10/05 05:04:03;;;;;;;88.60;36.60;;;;;;;;;;5017613;28;20033;-74
2021/10/05 05:06:28;;;;;;;97.80;38.70;;;;;;;;;;5030880;28;20029;-73
2021/10/05 05:08:54;;;;;;;95.55;38.47;;;;;;;;;;5017778;28;20072;-73
2021/10/05 05:11:20;;;;;;;86.30;36.35;;;;;;;;;;5018911;28;20033;-71
2021/10/05 05:13:45;;;;;;;85.13;36.85;;;;;;;;;;5011276;28;20036;-73
2021/10/05 05:16:11;;;;;;;89.63;35.90;;;;;;;;;;5037762;28;20107;-72
2021/10/05 05:18:36;;;;;;;84.47;36.53;;;;;;;;;;5035860;28;20033;-71
2021/10/05 05:21:02;;;;;;;86.22;35.25;;;;;;;;;;5011372;28;20022;-72
2021/10/05 05:23:27;;;;;;;83.93;37.17;;;;;;;;;;5025697;28;20121;-72
2021/10/05 05:25:54;;;;;;;87.25;38.92;;;;;;;;;;5019857;28;20037;-74
2021/10/05 05:28:22;;;;;;;87.07;35.33;;;;;;;;;;5011140;28;20076;-74
2021/10/05 05:30:48;;;;;;;79.50;33.80;;;;;;;;;;5012197;28;20105;-72
2021/10/05 05:33:13;;;;;;;72.90;33.97;;;;;;;;;;5017332;28;20398;-73
2021/10/05 05:35:39;;;;;;;76.07;33.67;;;;;;;;;;5020271;28;20050;-73
2021/10/05 05:38:05;;;;;;;76.40;32.53;;;;;;;;;;5014862;28;20037;-73
2021/10/05 05:40:30;;;;;;;73.53;33.30;;;;;;;;;;5023232;28;20022;-74
2021/10/05 05:42:55;;;;;;;76.35;33.28;;;;;;;;;;5020921;28;20544;-73
2021/10/05 05:45:21;;;;;;;76.55;32.35;;;;;;;;;;5026891;28;20033;-74
2021/10/05 05:47:47;;;;;;;78.25;33.65;;;;;;;;;;5025396;28;20171;-73
2021/10/05 05:50:12;;;;;;;71.30;32.22;;;;;;;;;;5028458;28;20022;-74
2021/10/05 05:52:38;;;;;;;65.15;30.95;;;;;;;;;;5025774;28;20014;-74
2021/10/05 05:55:04;;;;;;;69.47;31.35;;;;;;;;;;5041304;28;20030;-75
2021/10/05 05:57:30;;;;;;;66.13;32.28;;;;;;;;;;5011142;28;20417;-73
2021/10/05 05:59:55;;;;;;;64.82;32.25;;;;;;;;;;5019955;28;20061;-73
2021/10/05 06:02:21;;;;;;;68.47;32.28;;;;;;;;;;5015116;28;20040;-74
2021/10/05 06:04:47;;;;;;;70.72;30.63;;;;;;;;;;5026591;28;20036;-74
2021/10/05 06:07:12;;;;;;;66.22;30.15;;;;;;;;;;5024723;28;20029;-73
2021/10/05 06:09:38;;;;;;;70.47;30.27;;;;;;;;;;5021142;28;20357;-73
2021/10/05 06:12:16;;;;;;;74.00;35.10;;;;;;;;;;5031064;28;20617;-73
2021/10/05 06:14:41;;;;;;;64.90;29.73;;;;;;;;;;5029464;28;20100;-74
2021/10/05 06:17:08;;;;;;;65.90;29.92;;;;;;;;;;5024173;28;20145;-74
2021/10/05 06:19:33;;;;;;;62.50;29.52;;;;;;;;;;5008973;28;20033;-72
2021/10/05 06:21:59;;;;;;;55.28;28.17;;;;;;;;;;5021758;28;20523;-74
2021/10/05 06:24:26;;;;;;;81.18;31.33;;;;;;;;;;5032618;28;20029;-74
2021/10/05 06:26:52;;;;;;;60.38;27.95;;;;;;;;;;5027779;28;20079;-74
2021/10/05 06:29:19;;;;;;;62.22;30.38;;;;;;;;;;5037909;28;20034;-74
2021/10/05 06:31:45;;;;;;;65.03;29.10;;;;;;;;;;5024734;28;20029;-74
2021/10/05 06:34:10;;;;;;;67.47;29.50;;;;;;;;;;5030700;28;20061;-74
2021/10/05 06:36:36;;;;;;;63.63;28.08;;;;;;;;;;5028780;28;20067;-73
2021/10/05 06:39:03;;;;;;;61.72;29.65;;;;;;;;;;5046652;28;20033;-74
2021/10/05 06:41:28;;;;;;;62.03;27.02;;;;;;;;;;5024090;28;20053;-73
2021/10/05 06:43:54;;;;;;;59.90;27.83;;;;;;;;;;5026928;28;20412;-74
2021/10/05 06:46:20;;;;;;;61.42;29.20;;;;;;;;;;5021074;28;20033;-75
2021/10/05 06:48:48;;;;;;;56.83;28.40;;;;;;;;;;5031878;28;20036;-73
2021/10/05 06:51:13;;;;;;;54.10;28.38;;;;;;;;;;5022476;28;20148;-73
2021/10/05 06:53:41;;;;;;;65.93;28.60;;;;;;;;;;5023020;28;20117;-74
2021/10/05 06:56:06;;;;;;;55.85;26.90;;;;;;;;;;5023019;28;20030;-74
2021/10/05 06:58:33;;;;;;;49.75;26.95;;;;;;;;;;5028336;28;20026;-74
2021/10/05 07:00:59;;;;;;;64.68;27.38;;;;;;;;;;5027751;28;20029;-75
2021/10/05 07:03:24;;;;;;;69.38;29.92;;;;;;;;;;5037357;28;20385;-73
2021/10/05 07:05:51;;;;;;;56.35;27.48;;;;;;;;;;5024149;28;20055;-73
2021/10/05 07:08:19;;;;;;;63.30;27.08;;;;;;;;;;5018547;28;20048;-73
2021/10/05 07:10:46;;;;;;;53.78;26.27;;;;;;;;;;5028785;28;20025;-74
2021/10/05 07:13:12;;;;;;;59.53;28.13;;;;;;;;;;5027042;28;20462;-73
2021/10/05 07:15:37;;;;;;;66.93;28.45;;;;;;;;;;5022481;28;20087;-74
2021/10/05 07:18:04;;;;;;;53.00;26.40;;;;;;;;;;5020656;28;20075;-74
2021/10/05 07:20:31;;;;;;;59.83;26.83;;;;;;;;;;5016105;28;20075;-73
2021/10/05 07:22:58;;;;;;;58.78;26.30;;;;;;;;;;5027131;28;20044;-73
2021/10/05 07:25:25;;;;;;;66.13;30.60;;;;;;;;;;5034970;28;20060;-74
2021/10/05 07:27:52;;;;;;;82.10;61.30;;;;;;;;;;5008825;28;20053;-73
2021/10/05 07:30:24;;;;;;;69.75;33.08;;;;;;;;;;5015116;28;20046;-73
2021/10/05 07:33:07;;;;;;;57.70;28.50;;;;;;;;;;5021191;28;20133;-74
2021/10/05 07:35:33;;;;;;;55.58;27.17;;;;;;;;;;5022684;28;20501;-74
2021/10/05 07:37:59;;;;;;;55.95;27.95;;;;;;;;;;5022444;28;20040;-74
2021/10/05 07:40:27;;;;;;;57.50;27.02;;;;;;;;;;5016545;28;20034;-73
2021/10/05 07:42:56;;;;;;;59.65;28.35;;;;;;;;;;5012928;28;20711;-75
2021/10/05 07:45:23;;;;;;;62.13;26.50;;;;;;;;;;5018876;28;20033;-74
2021/10/05 07:47:49;;;;;;;67.45;30.75;;;;;;;;;;5017204;28;20038;-75
2021/10/05 07:50:17;;;;;;;67.25;32.10;;;;;;;;;;5016310;28;20036;-74
2021/10/05 07:52:43;;;;;;;57.00;27.95;;;;;;;;;;5021920;28;20017;-74
2021/10/05 07:55:09;;;;;;;55.08;28.17;;;;;;;;;;5020021;28;20397;-72
2021/10/05 07:57:35;;;;;;;56.40;27.08;;;;;;;;;;5019442;28;20033;-75
2021/10/05 08:00:04;;;;;;;49.63;27.13;;;;;;;;;;5020761;28;20473;-71
2021/10/05 08:02:30;;;;;;;53.20;27.20;;;;;;;;;;5023810;28;20026;-74
2021/10/05 08:04:56;;;;;;;53.33;25.50;;;;;;;;;;5019962;28;20542;-74
2021/10/05 08:07:26;;;;;;;59.58;28.48;;;;;;;;;;5018170;28;20073;-73
2021/10/05 08:09:55;;;;;;;49.75;25.60;;;;;;;;;;5018925;28;20682;-75
2021/10/05 08:12:22;;;;;;;51.35;25.80;;;;;;;;;;5017038;28;20029;-76
2021/10/05 08:14:49;;;;;;;65.78;27.75;;;;;;;;;;5017647;28;20389;-74
2021/10/05 08:17:15;;;;;;;56.30;28.45;;;;;;;;;;5012871;28;20033;-74
2021/10/05 08:19:40;;;;;;;60.58;31.02;;;;;;;;;;5014163;28;20032;-74
2021/10/05 08:22:06;;;;;;;55.65;27.38;;;;;;;;;;5016598;28;20096;-74
2021/10/05 08:24:35;;;;;;;64.53;27.35;;;;;;;;;;5016996;28;20053;-75
2021/10/05 08:27:01;;;;;;;51.20;26.80;;;;;;;;;;5022950;28;20025;-74
2021/10/05 08:29:26;;;;;;;50.72;28.23;;;;;;;;;;5014676;28;20359;-74
2021/10/05 08:31:52;;;;;;;65.28;27.38;;;;;;;;;;5016287;28;20357;-74
2021/10/05 08:34:20;;;;;;;55.67;27.63;;;;;;;;;;5020858;28;20029;-75
2021/10/05 08:36:45;;;;;;;50.60;25.13;;;;;;;;;;5020603;28;20129;-74
2021/10/05 08:39:14;;;;;;;54.13;28.73;;;;;;;;;;5017528;28;20042;-75
2021/10/05 08:41:44;;;;;;;50.67;25.90;;;;;;;;;;5021449;28;20113;-74
2021/10/05 08:44:09;;;;;;;53.25;25.67;;;;;;;;;;5011529;28;20116;-73
2021/10/05 08:46:36;;;;;;;51.72;24.23;;;;;;;;;;5021795;28;20118;-73
2021/10/05 08:49:02;;;;;;;58.33;27.00;;;;;;;;;;5018443;28;20152;-75
2021/10/05 08:51:27;;;;;;;54.30;27.52;;;;;;;;;;5016842;28;20553;-75
2021/10/05 08:53:54;;;;;;;56.47;26.88;;;;;;;;;;5020603;28;20095;-74
2021/10/05 08:56:20;;;;;;;54.50;27.10;;;;;;;;;;5022119;28;20029;-74
2021/10/05 08:58:45;;;;;;;55.47;27.55;;;;;;;;;;5020691;28;20355;-74
2021/10/05 09:01:14;;;;;;;51.42;24.85;;;;;;;;;;5011201;28;20861;-73
2021/10/05 09:03:53;;;;;;;50.70;24.42;;;;;;;;;;5017969;28;20029;-74
2021/10/05 09:06:22;;;;;;;45.80;23.90;;;;;;;;;;5016103;28;20631;-74
2021/10/05 09:08:50;;;;;;;54.63;24.98;;;;;;;;;;5025166;28;20055;-75
2021/10/05 09:11:18;;;;;;;48.10;24.65;;;;;;;;;;5009864;28;20034;-74
2021/10/05 09:13:49;;;;;;;58.47;25.65;;;;;;;;;;5022195;28;20026;-74
2021/10/05 09:16:26;;;;;;;50.25;24.02;;;;;;;;;;5019288;28;20057;-74
2021/10/05 09:19:09;;;;;;;45.22;22.50;;;;;;;;;;5018280;28;20112;-74
2021/10/05 09:21:55;;;;;;;72.75;23.50;;;;;;;;;;5019683;28;20033;-73
2021/10/05 09:24:28;;;;;;;48.28;22.75;;;;;;;;;;5012461;28;20042;-75
2021/10/05 09:27:02;;;;;;;56.63;24.00;;;;;;;;;;5022406;28;20060;-73
2021/10/05 09:29:31;;;;;;;49.42;22.65;;;;;;;;;;5025053;28;20029;-74
2021/10/05 09:32:01;;;;;;;52.42;22.50;;;;;;;;;;5030147;28;20025;-75
2021/10/05 09:34:51;;;;;;;48.50;21.10;;;;;;;;;;5023778;28;20063;-75
2021/10/05 09:37:25;;;;;;;49.15;22.95;;;;;;;;;;5019480;28;20126;-73
2021/10/05 09:39:52;;;;;;;43.28;20.77;;;;;;;;;;5022182;28;20034;-73
2021/10/05 09:42:29;;;;;;;47.20;22.92;;;;;;;;;;5026764;28;20125;-75
2021/10/05 09:45:24;;;;;;;42.97;22.40;;;;;;;;;;5012953;28;20060;-74
2021/10/05 09:47:54;;;;;;;49.25;22.42;;;;;;;;;;5014532;28;20037;-73
2021/10/05 09:50:28;;;;;;;42.75;22.45;;;;;;;;;;5021519;28;20030;-74
2021/10/05 09:53:06;;;;;;;41.83;21.23;;;;;;;;;;5019212;28;20025;-75
2021/10/05 09:55:34;;;;;;;45.67;21.02;;;;;;;;;;5027317;28;20167;-74
2021/10/05 09:58:00;;;;;;;70.28;24.42;;;;;;;;;;5020899;28;20053;-74
2021/10/05 10:00:30;;;;;;;41.95;21.63;;;;;;;;;;5020537;28;20069;-72
2021/10/05 10:02:56;;;;;;;43.72;22.05;;;;;;;;;;5020316;28;20072;-75
2021/10/05 10:05:24;;;;;;;41.20;20.20;;;;;;;;;;5020484;28;20479;-76
2021/10/05 10:07:52;;;;;;;60.72;24.50;;;;;;;;;;5010498;28;20083;-76
2021/10/05 10:10:20;;;;;;;40.30;22.33;;;;;;;;;;5021237;28;20117;-73
2021/10/05 10:12:47;;;;;;;41.45;20.60;;;;;;;;;;5014550;28;20106;-73
2021/10/05 10:15:14;;;;;;;48.63;19.85;;;;;;;;;;5023315;28;20083;-74
2021/10/05 10:17:40;;;;;;;53.47;20.38;;;;;;;;;;5016908;28;20141;-75
2021/10/05 10:20:07;;;;;;;44.40;22.48;;;;;;;;;;5015946;28;20917;-74
2021/10/05 10:22:45;;;;;;;50.10;23.92;;;;;;;;;;5011351;28;20022;-75
2021/10/05 10:25:26;;;;;;;42.55;20.65;;;;;;;;;;5015332;28;20025;-75
2021/10/05 10:27:57;;;;;;;39.05;20.02;;;;;;;;;;5015550;28;20101;-74
2021/10/05 10:30:27;;;;;;;40.55;19.30;;;;;;;;;;5015272;28;20041;-74
2021/10/05 10:32:59;;;;;;;37.22;18.98;;;;;;;;;;5014675;28;20042;-72
2021/10/05 10:35:24;;;;;;;;;;;;;;;;;;5011471;28;20061;-72
2021/10/05 10:37:52;;;;;;;43.97;19.27;;;;;;;;;;5004421;28;19921;-73
2021/10/05 10:40:30;;;;;;;39.33;18.88;;;;;;;;;;5004410;28;20047;-73
2021/10/05 10:42:56;;;;;;;36.78;18.15;;;;;;;;;;5006828;28;20542;-75
2021/10/05 10:45:22;;;;;;;36.65;17.85;;;;;;;;;;5020763;28;20034;-75
2021/10/05 10:47:55;;;;;;;36.92;18.38;;;;;;;;;;5016564;28;20038;-74
2021/10/05 10:50:23;;;;;;;36.35;18.63;;;;;;;;;;5012552;28;20037;-74
2021/10/05 10:52:48;;;;;;;39.20;19.08;;;;;;;;;;5015955;28;20049;-74
2021/10/05 10:55:19;;;;;;;39.65;19.50;;;;;;;;;;5018583;28;20065;-74
2021/10/05 10:57:53;;;;;;;29.33;16.87;;;;;;;;;;5016543;28;20112;-73
2021/10/05 11:00:30;;;;;;;35.20;17.90;;;;;;;;;;5016044;28;20275;-74
2021/10/05 11:02:58;;;;;;;37.90;17.92;;;;;;;;;;5015082;28;20056;-75
2021/10/05 11:05:25;;;;;;;33.90;17.42;;;;;;;;;;5022943;28;20041;-74
2021/10/05 11:07:55;;;;;;;32.92;17.13;;;;;;;;;;5022249;28;20025;-74
2021/10/05 11:10:26;;;;;;;26.50;15.98;;;;;;;;;;5041635;28;20037;-76
2021/10/05 11:13:13;;;;;;;29.38;16.00;;;;;;;;;;5016986;28;20034;-75
2021/10/05 11:15:47;;;;;;;28.60;15.52;;;;;;;;;;5011160;28;20234;-75
2021/10/05 11:18:23;;;;;;;33.33;15.48;;;;;;;;;;5012501;28;20548;-75
2021/10/05 11:20:53;;;;;;;36.28;16.52;;;;;;;;;;5010163;28;20064;-74
2021/10/05 11:23:22;;;;;;;33.15;15.80;;;;;;;;;;5011749;28;20141;-75
2021/10/05 11:25:56;;;;;;;29.40;15.82;;;;;;;;;;5020706;28;20147;-72
2021/10/05 11:28:26;;;;;;;27.42;16.52;;;;;;;;;;5021726;28;20029;-73
2021/10/05 11:30:57;;;;;;;30.73;16.88;;;;;;;;;;5017793;28;20044;-74
2021/10/05 11:33:25;;;;;;;;;;;;;;;;;;5022873;28;20033;-74
2021/10/05 11:35:54;;;;;;;23.20;14.30;;;;;;;;;;5023828;28;19931;-75
2021/10/05 11:38:20;;;;;;;29.23;14.10;;;;;;;;;;5017263;28;20061;-75
2021/10/05 11:40:54;;;;;;;42.15;16.70;;;;;;;;;;5016246;28;20064;-75
2021/10/05 11:43:35;;;;;;;36.75;14.85;;;;;;;;;;5006927;28;20048;-74
2021/10/05 11:46:09;;;;;;;35.10;14.43;;;;;;;;;;5024814;28;20114;-75
2021/10/05 11:48:47;;;;;;;32.72;14.95;;;;;;;;;;5019031;28;20034;-74
2021/10/05 11:51:15;;;;;;;29.80;14.48;;;;;;;;;;5020415;28;20044;-75
2021/10/05 11:53:42;;;;;;;25.98;14.52;;;;;;;;;;5005429;28;20042;-74
2021/10/05 11:56:16;;;;;;;24.38;15.10;;;;;;;;;;5023360;28;20029;-75
2021/10/05 11:58:43;;;;;;;31.40;15.60;;;;;;;;;;5019272;28;20042;-73
2021/10/05 12:01:22;;;;;;;24.67;13.40;;;;;;;;;;5006166;28;20390;-74
2021/10/05 12:03:51;;;;;;;24.80;12.77;;;;;;;;;;5023070;28;20041;-73
2021/10/05 12:06:32;;;;;;;25.40;14.25;;;;;;;;;;5019514;28;20034;-74
2021/10/05 12:09:02;;;;;;;25.75;13.45;;;;;;;;;;5020950;28;20033;-74
2021/10/05 12:11:46;;;;;;;26.85;14.38;;;;;;;;;;5018989;28;20034;-75
2021/10/05 12:14:15;;;;;;;21.88;14.07;;;;;;;;;;5015048;28;20034;-75
2021/10/05 12:16:54;;;;;;;23.08;13.65;;;;;;;;;;5022105;28;20037;-74
2021/10/05 12:19:27;;;;;;;22.55;13.80;;;;;;;;;;5031608;28;20515;-74
2021/10/05 12:21:54;;;;;;;31.73;16.38;;;;;;;;;;5024286;28;20545;-75
2021/10/05 12:24:20;;;;;;;30.75;15.35;;;;;;;;;;5018589;28;20054;-74
2021/10/05 12:26:50;;;;;;;24.23;13.45;;;;;;;;;;5022129;28;20076;-75
2021/10/05 12:29:16;;;;;;;24.20;13.43;;;;;;;;;;5022658;28;20117;-74
2021/10/05 12:31:52;;;;;;;31.75;14.30;;;;;;;;;;5019717;28;21835;-74
2021/10/05 12:34:18;;;;;;;24.52;13.38;;;;;;;;;;5019135;28;20033;-74
2021/10/05 12:36:43;;;;;;;26.77;14.82;;;;;;;;;;5025105;28;20057;-76
2021/10/05 12:39:15;;;;;;;34.65;15.95;;;;;;;;;;5003448;28;20486;-74
2021/10/05 12:41:42;;;;;;;27.02;14.98;;;;;;;;;;5018557;28;20423;-74
2021/10/05 12:44:19;;;;;;;27.48;15.52;;;;;;;;;;5021341;28;20038;-73
2021/10/05 12:47:11;;;;;;;35.03;16.27;;;;;;;;;;5027890;28;20700;-73
2021/10/05 12:49:36;;;;;;;26.15;14.23;;;;;;;;;;5030761;28;20045;-76
2021/10/05 12:52:04;;;;;;;26.80;14.10;;;;;;;;;;5016066;28;20018;-75
2021/10/05 12:54:29;;;;;;;71.57;19.98;;;;;;;;;;5021142;28;20062;-75
2021/10/05 12:56:58;;;;;;;28.17;16.60;;;;;;;;;;5018122;28;20108;-75
2021/10/05 12:59:25;;;;;;;27.17;15.32;;;;;;;;;;5006719;28;20565;-75
2021/10/05 13:01:50;;;;;;;34.42;15.70;;;;;;;;;;5018333;28;20116;-75
2021/10/05 13:04:16;;;;;;;28.60;15.25;;;;;;;;;;5015355;28;20120;-77
2021/10/05 13:06:42;;;;;;;30.60;15.85;;;;;;;;;;5023229;28;20113;-75
2021/10/05 13:09:09;;;;;;;29.33;15.95;;;;;;;;;;5013940;28;20038;-74
2021/10/05 13:11:36;;;;;;;33.25;16.95;;;;;;;;;;5014048;28;20033;-74
2021/10/05 13:14:03;;;;;;;33.40;16.20;;;;;;;;;;5021037;28;20474;-73
2021/10/05 13:16:30;;;;;;;34.67;17.30;;;;;;;;;;5014842;28;20036;-74
2021/10/05 13:18:56;;;;;;;31.33;15.85;;;;;;;;;;5016467;28;20362;-75
2021/10/05 13:21:22;;;;;;;45.60;21.05;;;;;;;;;;5017982;28;20038;-75
2021/10/05 13:23:47;;;;;;;31.25;16.75;;;;;;;;;;5031102;28;20080;-72
2021/10/05 13:26:13;;;;;;;34.20;17.63;;;;;;;;;;5016308;28;20025;-74
2021/10/05 13:28:38;;;;;;;34.40;17.02;;;;;;;;;;5019010;28;20064;-75
2021/10/05 13:31:04;;;;;;;33.88;16.77;;;;;;;;;;5021485;28;20029;-75
2021/10/05 13:33:31;;;;;;;37.42;17.63;;;;;;;;;;5017592;28;20038;-74
2021/10/05 13:35:57;;;;;;;32.50;18.02;;;;;;;;;;5004673;28;20409;-74
2021/10/05 13:38:22;;;;;;;31.40;15.68;;;;;;;;;;5016049;28;20025;-74
2021/10/05 13:40:50;;;;;;;32.22;16.33;;;;;;;;;;5024792;28;20025;-75
2021/10/05 13:43:19;;;;;;;42.97;18.42;;;;;;;;;;5015126;28;20104;-76
2021/10/05 13:45:45;;;;;;;34.78;17.27;;;;;;;;;;5018596;28;20400;-76
2021/10/05 13:48:11;;;;;;;46.28;17.75;;;;;;;;;;5010273;28;20033;-73
2021/10/05 13:50:40;;;;;;;36.58;17.40;;;;;;;;;;4998640;28;20209;-76
2021/10/05 13:53:06;;;;;;;29.23;16.67;;;;;;;;;;5022085;28;20041;-75
2021/10/05 13:55:33;;;;;;;36.72;17.77;;;;;;;;;;5011987;28;20129;-75
2021/10/05 13:57:59;;;;;;;34.63;17.05;;;;;;;;;;5023495;28;20029;-75
2021/10/05 14:00:25;;;;;;;36.95;19.25;;;;;;;;;;5028869;28;20028;-74
2021/10/05 14:02:51;;;;;;;35.30;19.27;;;;;;;;;;5013003;28;20413;-74
2021/10/05 14:05:16;;;;;;;37.92;18.10;;;;;;;;;;5021754;28;20593;-75
2021/10/05 14:07:42;;;;;;;45.08;18.05;;;;;;;;;;5018401;28;20034;-74
2021/10/05 14:10:08;;;;;;;51.88;21.63;;;;;;;;;;5027740;28;20033;-75
2021/10/05 14:12:34;;;;;;;66.40;35.88;;;;;;;;;;5014720;28;20037;-73
2021/10/05 14:15:00;;;;;;;45.20;20.35;;;;;;;;;;5016835;28;20018;-72
2021/10/05 14:17:26;;;;;;;42.97;18.80;;;;;;;;;;5021682;28;20163;-74
2021/10/05 14:19:51;;;;;;;41.33;20.45;;;;;;;;;;5004133;28;20128;-74